Time;durP1;ratioP1;P1;durP2;ratioP2;P2;SDS_P1;SDS_P2;PMS_P1;PMS_P2;Temp;Humidity;BMP_temperature;BMP_pressure;BME280_temperature;BME280_humidity;BME280_pressure;Samples;Min_cycle;Max_cycle;Signal;HPM_P1;HPM_P2
2022/12/07 00:01:41;;;;;;;2.25;2.08;;;17.60;62.30;;;;;;4955262;29;20209;-69
2022/12/07 00:04:12;;;;;;;2.70;2.42;;;17.60;62.30;;;;;;4955568;29;20201;-69
2022/12/07 00:06:44;;;;;;;2.50;2.30;;;17.60;62.30;;;;;;4955370;29;20174;-69
2022/12/07 00:09:14;;;;;;;2.30;2.20;;;17.60;62.30;;;;;;4938789;29;20277;-69
2022/12/07 00:11:40;;;;;;;2.10;2.00;;;17.60;62.30;;;;;;4955266;29;20639;-69
2022/12/07 00:14:10;;;;;;;2.50;2.30;;;17.60;62.30;;;;;;4955275;29;20214;-69
2022/12/07 00:16:36;;;;;;;2.20;2.10;;;17.60;62.30;;;;;;4956423;28;20254;-69
2022/12/07 00:19:03;;;;;;;2.30;2.20;;;17.60;62.30;;;;;;4955382;29;20194;-69
2022/12/07 00:21:33;;;;;;;2.50;2.30;;;17.60;62.30;;;;;;4955059;29;20167;-69
2022/12/07 00:24:00;;;;;;;2.20;2.10;;;17.60;62.30;;;;;;4954909;28;20667;-69
2022/12/07 00:26:33;;;;;;;2.60;2.40;;;17.60;62.30;;;;;;4955246;29;20189;-69
2022/12/07 00:29:12;;;;;;;2.72;2.45;;;17.60;62.30;;;;;;4954800;29;20639;-69
2022/12/07 00:31:38;;;;;;;2.50;2.30;;;17.60;62.30;;;;;;4954696;29;20194;-69
2022/12/07 00:34:06;;;;;;;2.47;2.28;;;17.60;62.30;;;;;;4938702;29;20230;-69
2022/12/07 00:36:33;;;;;;;2.60;2.40;;;17.60;62.30;;;;;;4955091;29;20217;-69
2022/12/07 00:39:00;;;;;;;2.35;2.13;;;17.60;62.30;;;;;;4954798;29;20186;-69
2022/12/07 00:41:30;;;;;;;2.40;2.28;;;17.60;62.30;;;;;;4954500;29;20210;-69
2022/12/07 00:43:56;;;;;;;2.70;2.50;;;17.60;62.30;;;;;;4954573;29;20186;-68
2022/12/07 00:46:23;;;;;;;2.70;2.50;;;17.60;62.30;;;;;;4955868;29;20182;-69
2022/12/07 00:48:50;;;;;;;2.50;2.30;;;17.60;62.30;;;;;;4954869;29;20240;-69
2022/12/07 00:51:19;;;;;;;2.55;2.35;;;17.60;62.30;;;;;;4954376;29;20186;-69
2022/12/07 00:53:45;;;;;;;2.88;2.67;;;17.60;62.30;;;;;;4954388;29;20183;-69
2022/12/07 00:56:14;;;;;;;2.30;2.20;;;17.60;62.30;;;;;;4938154;29;20199;-69
2022/12/07 00:58:40;;;;;;;3.15;2.40;;;17.60;62.30;;;;;;4954460;29;20190;-69
2022/12/07 01:01:08;;;;;;;2.60;2.40;;;17.60;62.30;;;;;;4954166;29;20194;-69
2022/12/07 01:03:35;;;;;;;2.47;2.28;;;17.60;62.30;;;;;;4955439;28;20189;-69
2022/12/07 01:06:02;;;;;;;2.55;2.30;;;17.60;62.30;;;;;;4954414;29;20322;-69
2022/12/07 01:08:30;;;;;;;2.28;2.17;;;17.60;62.30;;;;;;4954516;29;20428;-69
2022/12/07 01:11:03;;;;;;;2.58;2.38;;;17.60;62.30;;;;;;4953934;29;20592;-69
2022/12/07 01:13:30;;;;;;;2.40;2.20;;;17.60;62.30;;;;;;4955355;28;20166;-69
2022/12/07 01:15:59;;;;;;;2.47;2.20;;;17.60;62.30;;;;;;4953948;29;20217;-69
2022/12/07 01:18:28;;;;;;;2.63;2.42;;;17.60;62.30;;;;;;4954488;29;20293;-69
2022/12/07 01:21:06;;;;;;;2.78;2.58;;;17.60;62.30;;;;;;4953112;28;20175;-70
2022/12/07 01:23:34;;;;;;;2.60;2.40;;;17.60;62.30;;;;;;4953778;28;20187;-69
2022/12/07 01:26:04;;;;;;;2.38;2.17;;;17.60;62.30;;;;;;4938051;29;20206;-68
2022/12/07 01:28:30;;;;;;;2.40;2.20;;;17.60;62.30;;;;;;4954970;28;20324;-69
2022/12/07 01:31:18;;;;;;;2.50;2.30;;;17.60;62.30;;;;;;4954647;29;20209;-69
2022/12/07 01:33:49;;;;;;;2.30;2.20;;;17.60;62.30;;;;;;4953976;29;20174;-69
2022/12/07 01:36:19;;;;;;;2.60;2.40;;;17.60;62.30;;;;;;4953803;29;20214;-69
2022/12/07 01:38:47;;;;;;;2.83;2.53;;;17.60;62.30;;;;;;4937804;29;20209;-69
2022/12/07 01:41:14;;;;;;;2.67;2.47;;;17.60;62.30;;;;;;4953695;29;20654;-69
2022/12/07 01:44:10;;;;;;;2.70;2.50;;;17.60;62.30;;;;;;4954763;28;20542;-69
2022/12/07 01:46:37;;;;;;;2.40;2.20;;;17.60;62.30;;;;;;4953721;29;20263;-69
2022/12/07 01:49:08;;;;;;;2.50;2.30;;;17.60;62.30;;;;;;4953470;29;20186;-69
2022/12/07 01:51:36;;;;;;;2.65;2.45;;;17.60;62.30;;;;;;4953200;29;20186;-69
2022/12/07 01:54:02;;;;;;;2.60;2.40;;;17.60;62.30;;;;;;4952749;29;20205;-69
2022/12/07 01:56:29;;;;;;;2.80;2.60;;;17.60;62.30;;;;;;4953467;29;20179;-69
2022/12/07 01:58:58;;;;;;;2.28;2.17;;;17.60;62.30;;;;;;4953452;29;20218;-68
2022/12/07 02:01:24;;;;;;;2.60;2.40;;;17.60;62.30;;;;;;4937066;29;20269;-69
2022/12/07 02:03:50;;;;;;;2.72;2.53;;;17.60;62.30;;;;;;4937668;29;20186;-69
2022/12/07 02:06:24;;;;;;;2.17;2.05;;;17.60;62.30;;;;;;4953294;29;20206;-69
2022/12/07 02:08:50;;;;;;;2.50;2.30;;;17.60;62.30;;;;;;4953104;29;20201;-69
2022/12/07 02:11:17;;;;;;;2.63;2.42;;;17.60;62.30;;;;;;4953425;29;20213;-69
2022/12/07 02:13:45;;;;;;;2.72;2.42;;;17.60;62.30;;;;;;4937251;29;20202;-69
2022/12/07 02:16:39;;;;;;;2.80;2.60;;;17.60;62.30;;;;;;4953124;29;20218;-69
2022/12/07 02:19:39;;;;;;;2.20;2.10;;;17.60;62.30;;;;;;4937269;28;20274;-69
2022/12/07 02:22:48;;;;;;;2.33;2.13;;;17.60;62.30;;;;;;4937017;29;20190;-69
2022/12/07 02:25:46;;;;;;;2.28;2.17;;;17.60;62.30;;;;;;4953138;29;20273;-68
2022/12/07 02:28:33;;;;;;;2.25;2.05;;;17.60;62.30;;;;;;4954234;28;20270;-69
2022/12/07 02:31:12;;;;;;;2.58;2.40;;;17.60;62.30;;;;;;4952878;29;20190;-69
2022/12/07 02:33:52;;;;;;;2.08;1.98;;;17.60;62.30;;;;;;4939852;29;20228;-69
2022/12/07 02:36:44;;;;;;;2.38;2.28;;;17.60;62.30;;;;;;4956982;29;20225;-69
2022/12/07 02:39:36;;;;;;;2.22;2.03;;;17.60;62.30;;;;;;4940911;29;20192;-69
2022/12/07 02:42:21;;;;;;;2.17;1.98;;;17.60;62.30;;;;;;4940674;29;20186;-69
2022/12/07 02:44:48;;;;;;;1.90;1.80;;;17.60;62.30;;;;;;4957151;29;20249;-69
2022/12/07 02:47:18;;;;;;;2.20;2.10;;;17.60;62.30;;;;;;4940732;29;20192;-69
2022/12/07 02:49:44;;;;;;;2.20;2.10;;;17.60;62.30;;;;;;4940872;29;20261;-69
2022/12/07 02:52:10;;;;;;;2.28;2.10;;;17.60;62.30;;;;;;4956352;29;20741;-69
2022/12/07 02:54:36;;;;;;;2.15;2.05;;;17.60;62.30;;;;;;4940834;29;20225;-70
2022/12/07 02:57:17;;;;;;;2.00;1.90;;;17.60;62.30;;;;;;4958153;28;20183;-70
2022/12/07 03:00:11;;;;;;;2.00;1.90;;;17.60;62.30;;;;;;4940469;29;20187;-69
2022/12/07 03:03:07;;;;;;;2.45;2.25;;;17.60;62.30;;;;;;4956519;29;20206;-70
2022/12/07 03:06:09;;;;;;;2.05;1.90;;;17.60;62.30;;;;;;4956420;29;20271;-70
2022/12/07 03:09:16;;;;;;;2.00;1.90;;;17.60;62.30;;;;;;4940900;29;20218;-70
2022/12/07 03:11:52;;;;;;;2.10;2.00;;;17.60;62.30;;;;;;4903056;29;20206;-69
2022/12/07 03:14:33;;;;;;;1.80;1.70;;;17.60;62.30;;;;;;4956460;29;20226;-70
2022/12/07 03:17:23;;;;;;;1.85;1.75;;;17.60;62.40;;;;;;4939221;28;20178;-70
2022/12/07 03:19:56;;;;;;;2.28;2.08;;;17.60;62.40;;;;;;4940238;29;20218;-70
2022/12/07 03:22:28;;;;;;;1.83;1.73;;;17.60;62.50;;;;;;4956177;29;20181;-70
2022/12/07 03:24:58;;;;;;;2.30;2.10;;;17.70;62.70;;;;;;4956250;29;20270;-69
2022/12/07 03:27:44;;;;;;;1.90;1.80;;;17.60;62.40;;;;;;4956374;29;20179;-70
2022/12/07 03:30:18;;;;;;;1.95;1.85;;;17.60;62.30;;;;;;4940072;29;20186;-70
2022/12/07 03:32:52;;;;;;;2.10;2.00;;;17.60;62.40;;;;;;4940014;29;20245;-69
2022/12/07 03:38:29;;;;;;;1.88;1.77;;;17.60;62.50;;;;;;5013468;28;20255;-68
2022/12/07 03:41:17;;;;;;;2.20;2.03;;;17.60;62.50;;;;;;5014137;28;20179;-67
2022/12/07 03:43:42;;;;;;;2.22;2.05;;;17.60;62.40;;;;;;5013546;28;20188;-67
2022/12/07 03:46:28;;;;;;;2.17;2.03;;;17.60;62.50;;;;;;5014849;28;20214;-67
2022/12/07 03:49:18;;;;;;;2.30;2.10;;;17.60;62.40;;;;;;5014084;28;20243;-67
2022/12/07 03:51:53;;;;;;;1.92;1.83;;;17.60;62.40;;;;;;5013856;28;20187;-68
2022/12/07 03:54:48;;;;;;;2.10;1.90;;;17.60;62.50;;;;;;4998653;28;20651;-66
2022/12/07 03:57:14;;;;;;;2.05;1.95;;;17.60;62.40;;;;;;5010656;28;20181;-67
2022/12/07 03:59:42;;;;;;;2.35;2.15;;;17.60;62.40;;;;;;5010615;28;20197;-68
2022/12/07 04:02:12;;;;;;;1.70;1.60;;;17.60;62.40;;;;;;5010407;28;20271;-68
2022/12/07 04:04:39;;;;;;;2.03;1.88;;;17.60;62.40;;;;;;5010732;28;20292;-67
2022/12/07 04:07:05;;;;;;;1.73;1.63;;;17.60;62.50;;;;;;4994145;28;20177;-68
2022/12/07 04:09:30;;;;;;;2.10;2.00;;;17.60;62.40;;;;;;4994353;28;20181;-68
2022/12/07 04:11:56;;;;;;;2.10;2.00;;;17.60;62.40;;;;;;4995006;28;20185;-67
2022/12/07 04:14:22;;;;;;;2.00;1.80;;;17.60;62.40;;;;;;4994061;28;20302;-67
2022/12/07 04:16:57;;;;;;;1.85;1.75;;;17.60;63.20;;;;;;4993865;28;20234;-67
2022/12/07 04:19:30;;;;;;;2.35;2.15;;;17.60;63.20;;;;;;5010144;28;20231;-68
2022/12/07 04:21:58;;;;;;;1.95;1.85;;;17.60;62.40;;;;;;4993919;28;20243;-68
2022/12/07 04:24:24;;;;;;;1.90;1.80;;;17.60;62.40;;;;;;5010098;28;20189;-68
2022/12/07 04:26:50;;;;;;;1.90;1.80;;;17.60;62.40;;;;;;4994019;28;20216;-67
2022/12/07 04:29:17;;;;;;;2.05;1.92;;;17.60;62.40;;;;;;4993699;28;20645;-68
2022/12/07 04:31:44;;;;;;;2.05;1.95;;;17.60;62.40;;;;;;5009793;28;20691;-67
2022/12/07 04:34:11;;;;;;;1.92;1.83;;;17.60;62.40;;;;;;5009902;28;20192;-68
2022/12/07 04:36:37;;;;;;;2.33;2.13;;;17.60;62.40;;;;;;4994575;28;20215;-67
2022/12/07 04:39:05;;;;;;;2.50;2.03;;;17.60;62.40;;;;;;5009765;28;20239;-67
2022/12/07 04:41:30;;;;;;;2.15;2.03;;;17.60;62.30;;;;;;5009615;28;20188;-67
2022/12/07 04:44:03;;;;;;;1.95;1.85;;;17.60;62.30;;;;;;5009669;28;20187;-67
2022/12/07 04:46:31;;;;;;;2.20;2.10;;;17.60;62.30;;;;;;4993214;28;20205;-68
2022/12/07 04:48:57;;;;;;;1.95;1.85;;;17.60;62.30;;;;;;5009905;28;20637;-67
2022/12/07 04:51:28;;;;;;;2.10;1.90;;;17.60;62.30;;;;;;4993105;28;20283;-67
2022/12/07 04:53:55;;;;;;;2.40;2.20;;;17.60;62.30;;;;;;5009521;28;20188;-67
2022/12/07 04:56:22;;;;;;;2.55;1.92;;;17.60;62.30;;;;;;5009621;28;20553;-67
2022/12/07 04:58:48;;;;;;;2.05;1.95;;;17.60;62.30;;;;;;4993620;28;20197;-68
2022/12/07 05:01:17;;;;;;;2.00;1.90;;;17.60;62.30;;;;;;5009368;28;20653;-68
2022/12/07 05:03:43;;;;;;;1.92;1.83;;;17.60;62.30;;;;;;4993338;28;20191;-68
2022/12/07 05:06:10;;;;;;;1.80;1.70;;;17.60;62.30;;;;;;5009253;28;20209;-68
2022/12/07 05:08:36;;;;;;;2.35;2.15;;;17.60;62.30;;;;;;5009527;28;20189;-67
2022/12/07 05:11:04;;;;;;;1.80;1.70;;;17.60;62.30;;;;;;4994334;28;20180;-68
2022/12/07 05:13:31;;;;;;;1.90;1.80;;;17.60;62.30;;;;;;5009295;28;20188;-68
2022/12/07 05:15:57;;;;;;;1.92;1.83;;;17.60;62.30;;;;;;4993895;28;20223;-68
2022/12/07 05:18:24;;;;;;;1.90;1.80;;;17.60;62.30;;;;;;4993218;28;20185;-68
2022/12/07 05:20:50;;;;;;;2.35;2.15;;;17.60;62.30;;;;;;5009368;28;20185;-68
2022/12/07 05:23:17;;;;;;;1.95;1.85;;;17.60;62.30;;;;;;5008916;28;20181;-67
2022/12/07 05:25:44;;;;;;;2.00;1.90;;;17.50;62.20;;;;;;5008834;28;20212;-67
2022/12/07 05:28:11;;;;;;;2.15;1.95;;;17.60;62.30;;;;;;5008930;28;20193;-67
2022/12/07 05:30:36;;;;;;;2.10;2.00;;;17.60;62.30;;;;;;5011301;28;20192;-68
2022/12/07 05:33:03;;;;;;;1.80;1.70;;;17.60;62.30;;;;;;5011857;28;20199;-68
2022/12/07 05:35:29;;;;;;;1.98;1.88;;;17.50;62.10;;;;;;4995589;28;20298;-68
2022/12/07 05:37:56;;;;;;;1.77;1.67;;;17.60;62.20;;;;;;4995565;28;20245;-67
2022/12/07 05:40:22;;;;;;;1.80;1.70;;;17.50;62.10;;;;;;5012282;28;20278;-67
2022/12/07 05:42:48;;;;;;;1.73;1.63;;;17.60;62.30;;;;;;5011929;28;20314;-67
2022/12/07 05:45:14;;;;;;;1.95;1.85;;;17.60;62.00;;;;;;4995652;28;20208;-68
2022/12/07 05:47:39;;;;;;;1.75;1.65;;;17.60;62.20;;;;;;5012950;28;20557;-67
2022/12/07 05:50:06;;;;;;;2.00;1.90;;;17.60;62.00;;;;;;5011623;28;20195;-68
2022/12/07 05:52:32;;;;;;;2.15;2.00;;;17.60;62.00;;;;;;4995273;28;20215;-68
2022/12/07 05:54:58;;;;;;;1.85;1.75;;;17.50;62.00;;;;;;5028253;28;20216;-67
2022/12/07 05:57:24;;;;;;;2.20;2.00;;;17.60;62.10;;;;;;4995626;28;20607;-67
2022/12/07 05:59:50;;;;;;;2.35;2.03;;;17.50;62.00;;;;;;5011805;28;20708;-68
2022/12/07 06:02:17;;;;;;;1.75;1.65;;;17.60;62.10;;;;;;5011323;28;20188;-68
2022/12/07 06:04:46;;;;;;;2.63;2.40;;;17.60;62.10;;;;;;5011803;28;20287;-67
2022/12/07 06:07:15;;;;;;;2.38;1.83;;;17.60;62.00;;;;;;5012424;28;20172;-67
2022/12/07 06:09:41;;;;;;;2.17;2.08;;;17.60;62.10;;;;;;5012708;28;20179;-68
2022/12/07 06:14:55;;;;;;;2.00;1.90;;;17.60;62.10;;;;;;5011253;28;20220;-69
2022/12/07 06:17:21;;;;;;;2.28;2.08;;;17.60;62.00;;;;;;5028309;28;20180;-69
2022/12/07 06:19:46;;;;;;;2.20;2.00;;;17.50;61.90;;;;;;4990233;28;20185;-69
2022/12/07 06:22:13;;;;;;;2.22;2.03;;;17.50;61.90;;;;;;4996938;28;20184;-69
2022/12/07 06:24:39;;;;;;;2.22;2.03;;;17.50;61.90;;;;;;4991278;28;20212;-69
2022/12/07 06:27:06;;;;;;;1.90;1.80;;;17.50;62.00;;;;;;4992228;28;20193;-71
2022/12/07 06:29:32;;;;;;;2.35;2.15;;;17.50;61.90;;;;;;4991233;28;20287;-69
2022/12/07 06:31:57;;;;;;;2.03;1.83;;;17.50;61.90;;;;;;4991074;28;20287;-70
2022/12/07 06:34:24;;;;;;;2.42;2.22;;;17.50;61.90;;;;;;4990839;28;20220;-69
2022/12/07 06:36:53;;;;;;;1.90;1.80;;;17.50;61.90;;;;;;4989229;28;20193;-69
2022/12/07 06:39:24;;;;;;;2.17;1.98;;;17.50;61.90;;;;;;4989550;28;20711;-69
2022/12/07 06:41:54;;;;;;;2.20;2.10;;;17.50;61.90;;;;;;4990550;28;20165;-69
2022/12/07 06:44:21;;;;;;;2.30;2.10;;;17.50;61.90;;;;;;4989702;28;20193;-69
2022/12/07 06:46:49;;;;;;;2.05;1.95;;;17.50;61.90;;;;;;4995085;28;20208;-69
2022/12/07 06:49:14;;;;;;;1.92;1.83;;;17.50;61.90;;;;;;5009272;28;20184;-69
2022/12/07 06:51:41;;;;;;;2.05;1.95;;;17.60;62.00;;;;;;4993084;28;20214;-70
2022/12/07 06:54:09;;;;;;;2.58;2.17;;;17.50;61.90;;;;;;5010998;28;20184;-69
2022/12/07 06:56:35;;;;;;;2.22;2.13;;;17.50;61.90;;;;;;5010486;28;20200;-69
2022/12/07 06:59:02;;;;;;;2.05;1.95;;;17.50;61.90;;;;;;4994189;28;20203;-69
2022/12/07 07:01:28;;;;;;;2.00;1.90;;;17.50;62.70;;;;;;5011399;28;20188;-69
2022/12/07 07:03:54;;;;;;;2.30;2.10;;;17.50;61.90;;;;;;5010642;28;20188;-69
2022/12/07 07:06:19;;;;;;;2.03;1.92;;;17.50;61.80;;;;;;4993925;28;20215;-69
2022/12/07 07:08:45;;;;;;;3.00;2.13;;;17.50;61.80;;;;;;5001170;28;20238;-70
2022/12/07 07:11:11;;;;;;;2.47;2.15;;;17.50;61.80;;;;;;4992774;28;20265;-69
2022/12/07 07:13:37;;;;;;;2.03;1.92;;;17.50;62.50;;;;;;4993975;28;20580;-69
2022/12/07 07:16:03;;;;;;;2.50;2.30;;;17.50;61.80;;;;;;4994109;28;20295;-69
2022/12/07 07:18:29;;;;;;;2.25;2.05;;;17.60;61.80;;;;;;5011250;28;20260;-68
2022/12/07 07:20:55;;;;;;;2.42;2.22;;;17.50;61.70;;;;;;4997062;28;20259;-69
2022/12/07 07:23:21;;;;;;;2.67;2.47;;;17.50;61.60;;;;;;5013981;28;20184;-69
2022/12/07 07:25:48;;;;;;;2.60;2.40;;;17.50;61.70;;;;;;4997691;28;20291;-69
2022/12/07 07:28:14;;;;;;;3.03;2.42;;;17.50;61.70;;;;;;5014025;28;20195;-69
2022/12/07 07:30:40;;;;;;;3.33;2.25;;;17.50;61.70;;;;;;5013976;28;20291;-70
2022/12/07 07:33:06;;;;;;;3.65;2.20;;;17.50;61.80;;;;;;5013753;28;20184;-70
2022/12/07 07:35:34;;;;;;;2.80;2.50;;;17.50;61.80;;;;;;5013852;28;20593;-69
2022/12/07 07:38:01;;;;;;;2.42;2.30;;;17.50;61.60;;;;;;4997586;28;20177;-69
2022/12/07 07:40:30;;;;;;;2.50;2.30;;;17.50;61.60;;;;;;4997402;28;20211;-69
2022/12/07 07:42:57;;;;;;;2.58;2.33;;;17.50;61.70;;;;;;5013636;28;20640;-69
2022/12/07 07:45:25;;;;;;;2.63;2.38;;;17.50;61.60;;;;;;5013881;28;20212;-69
2022/12/07 07:47:51;;;;;;;2.63;2.40;;;17.50;61.70;;;;;;4997368;28;20196;-69
2022/12/07 07:50:18;;;;;;;3.15;2.85;;;17.50;61.70;;;;;;5014984;28;20203;-69
2022/12/07 07:52:45;;;;;;;3.10;2.90;;;17.50;61.60;;;;;;5013389;28;20726;-69
2022/12/07 07:55:11;;;;;;;2.95;2.70;;;17.50;61.60;;;;;;5013508;28;20220;-69
2022/12/07 07:57:39;;;;;;;3.00;2.50;;;17.50;61.60;;;;;;5013374;28;20188;-69
2022/12/07 08:00:12;;;;;;;2.97;2.50;;;17.50;61.60;;;;;;5013515;28;20184;-69
2022/12/07 08:02:39;;;;;;;3.17;2.88;;;17.50;61.50;;;;;;5014502;28;20200;-70
2022/12/07 08:05:05;;;;;;;2.90;2.60;;;17.50;61.50;;;;;;4996895;28;20265;-69
2022/12/07 08:07:31;;;;;;;2.83;2.53;;;17.50;61.50;;;;;;5013209;28;20191;-69
2022/12/07 08:09:57;;;;;;;2.60;2.40;;;17.50;61.50;;;;;;5013363;28;20196;-69
2022/12/07 08:12:22;;;;;;;2.88;2.47;;;17.50;61.50;;;;;;5013002;28;20188;-69
2022/12/07 08:14:48;;;;;;;2.80;2.53;;;17.50;62.20;;;;;;5012872;28;20227;-69
2022/12/07 08:17:14;;;;;;;2.85;2.55;;;17.50;61.50;;;;;;5013154;28;20191;-69
2022/12/07 08:19:40;;;;;;;3.20;2.90;;;17.50;61.50;;;;;;4997003;28;20181;-69
2022/12/07 08:22:05;;;;;;;2.80;2.58;;;17.50;61.40;;;;;;5012811;28;20567;-69
2022/12/07 08:24:34;;;;;;;2.50;2.30;;;17.50;61.50;;;;;;5029315;28;20184;-69
2022/12/07 08:27:01;;;;;;;3.38;2.60;;;17.50;61.50;;;;;;5013010;28;20221;-69
2022/12/07 08:29:27;;;;;;;2.67;2.40;;;17.50;61.50;;;;;;5012881;28;20187;-69
2022/12/07 08:31:53;;;;;;;2.63;2.40;;;17.50;61.50;;;;;;5012301;28;20180;-69
2022/12/07 08:34:18;;;;;;;2.78;2.58;;;17.50;61.50;;;;;;4996281;28;20211;-69
2022/12/07 08:36:44;;;;;;;3.20;2.90;;;17.60;61.50;;;;;;5012779;28;20188;-69
2022/12/07 08:39:10;;;;;;;3.17;2.60;;;17.50;61.50;;;;;;5010487;28;20172;-69
2022/12/07 08:41:36;;;;;;;2.80;2.60;;;17.50;61.50;;;;;;4976795;28;20173;-69
2022/12/07 08:44:02;;;;;;;2.65;2.45;;;17.50;61.50;;;;;;4993018;28;20181;-69
2022/12/07 08:46:38;;;;;;;2.50;2.30;;;17.50;61.40;;;;;;4976604;28;20208;-69
2022/12/07 08:49:18;;;;;;;2.80;2.53;;;17.50;61.50;;;;;;4992788;28;20192;-69
2022/12/07 08:51:44;;;;;;;3.25;2.47;;;17.50;61.40;;;;;;5008727;28;20188;-69
2022/12/07 08:54:16;;;;;;;2.92;2.70;;;17.50;61.40;;;;;;5012484;28;20192;-70
2022/12/07 08:56:43;;;;;;;3.28;2.33;;;17.60;61.40;;;;;;5012422;28;20655;-69
2022/12/07 08:59:09;;;;;;;3.60;2.47;;;17.50;61.20;;;;;;5012325;28;20176;-69
2022/12/07 09:01:35;;;;;;;2.70;2.50;;;17.50;61.20;;;;;;5012165;28;20271;-69
2022/12/07 09:04:01;;;;;;;2.47;2.28;;;17.60;61.30;;;;;;5013455;28;20211;-70
2022/12/07 09:06:27;;;;;;;2.63;2.42;;;17.60;61.40;;;;;;4995657;28;20211;-69
2022/12/07 09:09:01;;;;;;;2.33;2.15;;;17.60;61.40;;;;;;5012189;28;20237;-69
2022/12/07 09:11:27;;;;;;;3.00;2.80;;;17.50;61.30;;;;;;4995838;28;20199;-70
2022/12/07 09:13:53;;;;;;;2.38;2.17;;;17.60;61.40;;;;;;5011969;28;20200;-69
2022/12/07 09:16:19;;;;;;;3.00;2.38;;;17.50;61.30;;;;;;4991815;28;20219;-69
2022/12/07 09:18:44;;;;;;;2.53;2.30;;;17.60;61.40;;;;;;4995595;28;20191;-69
2022/12/07 09:21:10;;;;;;;2.67;2.47;;;17.60;61.30;;;;;;5011902;28;20193;-68
2022/12/07 09:23:36;;;;;;;2.70;2.50;;;17.60;61.30;;;;;;5011235;28;20195;-69
2022/12/07 09:26:04;;;;;;;3.90;2.22;;;17.60;61.40;;;;;;5011608;28;20311;-70
2022/12/07 09:28:33;;;;;;;2.47;2.28;;;17.60;61.30;;;;;;5011879;28;20183;-69
2022/12/07 09:31:01;;;;;;;2.35;2.15;;;17.60;61.30;;;;;;5011724;28;20250;-69
2022/12/07 09:33:27;;;;;;;2.47;2.28;;;17.60;61.30;;;;;;5012676;28;20570;-69
2022/12/07 09:35:53;;;;;;;2.63;2.42;;;17.60;61.30;;;;;;5018325;23;20227;-70
2022/12/07 09:38:20;;;;;;;2.33;2.10;;;17.60;61.30;;;;;;5011669;28;20619;-70
2022/12/07 09:40:47;;;;;;;2.30;2.10;;;17.60;61.30;;;;;;5012810;28;20187;-70
2022/12/07 09:43:23;;;;;;;2.40;2.20;;;17.60;61.30;;;;;;5010533;28;20203;-71
2022/12/07 09:45:54;;;;;;;2.53;2.33;;;17.60;61.30;;;;;;5011653;28;20207;-70
2022/12/07 09:48:30;;;;;;;2.50;2.30;;;17.60;61.30;;;;;;5012746;28;20187;-70
2022/12/07 09:51:00;;;;;;;2.13;1.95;;;17.60;61.20;;;;;;5011445;28;20184;-71
2022/12/07 09:53:34;;;;;;;2.53;2.33;;;17.60;61.30;;;;;;5011041;28;20195;-70
2022/12/07 09:56:01;;;;;;;2.40;2.20;;;17.60;61.30;;;;;;5011085;28;20219;-70
2022/12/07 09:58:29;;;;;;;2.70;2.50;;;17.60;61.30;;;;;;5011293;28;20215;-70
2022/12/07 10:01:18;;;;;;;2.50;2.30;;;17.60;61.30;;;;;;5011368;28;20242;-71
2022/12/07 10:04:10;;;;;;;2.47;2.13;;;17.70;61.40;;;;;;5010949;28;20184;-71
2022/12/07 10:06:35;;;;;;;2.10;1.98;;;17.70;61.40;;;;;;5011628;28;20287;-70
2022/12/07 10:09:02;;;;;;;2.22;2.03;;;17.70;61.40;;;;;;5012285;28;20192;-70
2022/12/07 10:11:28;;;;;;;2.10;1.90;;;17.70;61.40;;;;;;5011030;28;20180;-70
2022/12/07 10:13:54;;;;;;;1.90;1.80;;;17.70;61.40;;;;;;5010886;28;20191;-70
2022/12/07 10:16:37;;;;;;;2.33;2.13;;;17.70;61.40;;;;;;5010981;28;20219;-70
2022/12/07 10:19:30;;;;;;;2.35;2.10;;;17.70;61.40;;;;;;5010951;28;20675;-71
2022/12/07 10:22:03;;;;;;;2.47;2.28;;;17.70;61.40;;;;;;4994339;28;20192;-71
2022/12/07 10:24:29;;;;;;;2.47;2.03;;;17.70;61.40;;;;;;5027323;28;20220;-70
2022/12/07 10:26:56;;;;;;;1.95;1.85;;;17.60;61.40;;;;;;5010731;28;20584;-70
2022/12/07 10:29:25;;;;;;;2.20;2.00;;;17.70;61.40;;;;;;5010939;28;20252;-70
2022/12/07 10:31:58;;;;;;;2.13;1.98;;;17.70;61.40;;;;;;4998044;28;20192;-70
2022/12/07 10:34:29;;;;;;;2.35;2.20;;;17.70;61.40;;;;;;4991521;28;20185;-71
2022/12/07 10:37:13;;;;;;;1.83;1.73;;;17.70;61.40;;;;;;4991136;28;20217;-70
2022/12/07 10:39:52;;;;;;;2.20;2.00;;;17.70;61.30;;;;;;4975289;28;20189;-70
2022/12/07 10:42:24;;;;;;;2.17;2.05;;;17.70;61.30;;;;;;4990925;28;20185;-70
2022/12/07 10:45:16;;;;;;;2.05;1.90;;;17.70;61.30;;;;;;4991107;28;20181;-70
2022/12/07 10:48:02;;;;;;;2.28;2.08;;;17.70;61.30;;;;;;4992197;28;20189;-71
2022/12/07 10:51:10;;;;;;;2.00;1.90;;;17.70;61.40;;;;;;4991346;28;20192;-70
2022/12/07 10:54:10;;;;;;;1.98;1.88;;;17.70;61.40;;;;;;4975579;28;20263;-70
2022/12/07 10:57:12;;;;;;;2.05;1.95;;;17.70;61.30;;;;;;4978932;28;20310;-70
2022/12/07 11:00:09;;;;;;;2.13;2.03;;;17.70;61.30;;;;;;5015062;28;20199;-70
2022/12/07 11:03:50;;;;;;;2.10;2.00;;;17.70;61.30;;;;;;5030675;28;20571;-71
2022/12/07 11:06:34;;;;;;;1.92;1.75;;;17.70;61.40;;;;;;5010086;28;20219;-70
2022/12/07 11:09:37;;;;;;;1.92;1.67;;;17.70;61.40;;;;;;4997980;28;20203;-70
2022/12/07 11:12:13;;;;;;;2.00;1.90;;;17.70;61.30;;;;;;4997730;28;20191;-70
2022/12/07 11:15:22;;;;;;;2.03;1.70;;;17.70;61.30;;;;;;5014194;28;20725;-70
2022/12/07 11:18:23;;;;;;;2.22;2.03;;;17.70;61.40;;;;;;5008825;28;20230;-71
2022/12/07 11:21:08;;;;;;;2.00;1.80;;;17.70;61.40;;;;;;4997450;28;20191;-70
2022/12/07 11:23:52;;;;;;;1.80;1.70;;;17.70;61.30;;;;;;5013432;28;20272;-70
2022/12/07 11:26:45;;;;;;;2.20;2.00;;;17.70;61.20;;;;;;5014183;28;20634;-70
2022/12/07 11:29:27;;;;;;;2.00;1.80;;;17.70;61.30;;;;;;5014228;28;20246;-70
2022/12/07 11:32:26;;;;;;;2.15;1.90;;;17.70;61.20;;;;;;4997603;28;20200;-70
2022/12/07 11:34:58;;;;;;;1.73;1.63;;;17.70;61.30;;;;;;5013682;28;20242;-71
2022/12/07 11:37:33;;;;;;;1.77;1.67;;;17.70;61.30;;;;;;4997384;28;20192;-70
2022/12/07 11:40:27;;;;;;;1.75;1.65;;;17.70;61.20;;;;;;5015711;28;20180;-70
2022/12/07 11:42:59;;;;;;;2.13;1.98;;;17.70;61.20;;;;;;5013550;28;20656;-70
2022/12/07 11:45:33;;;;;;;1.75;1.65;;;17.70;61.30;;;;;;5014923;28;20223;-71
2022/12/07 11:48:30;;;;;;;1.80;1.70;;;17.70;61.30;;;;;;5014058;28;20188;-70
2022/12/07 11:51:00;;;;;;;1.63;1.52;;;17.70;61.20;;;;;;5014268;28;20207;-70
2022/12/07 11:53:37;;;;;;;1.90;1.80;;;17.70;61.30;;;;;;5013914;28;20200;-69
2022/12/07 11:56:14;;;;;;;1.67;1.58;;;17.70;61.30;;;;;;5013833;28;20212;-70
2022/12/07 11:59:12;;;;;;;1.67;1.58;;;17.70;61.20;;;;;;5030615;28;20180;-70
2022/12/07 12:01:38;;;;;;;1.70;1.60;;;17.70;61.10;;;;;;4997761;28;20549;-70
2022/12/07 12:04:10;;;;;;;1.67;1.58;;;17.70;61.20;;;;;;5013630;28;20176;-68
2022/12/07 12:06:40;;;;;;;1.80;1.65;;;17.70;61.20;;;;;;5012987;28;20243;-69
2022/12/07 12:09:22;;;;;;;2.05;1.75;;;17.70;61.10;;;;;;5013583;28;20176;-69
2022/12/07 12:12:19;;;;;;;1.52;1.42;;;17.70;61.20;;;;;;5014586;28;20203;-69
2022/12/07 12:15:07;;;;;;;1.67;1.58;;;17.70;61.20;;;;;;4997024;28;20208;-68
2022/12/07 12:18:04;;;;;;;2.00;1.90;;;17.70;61.10;;;;;;4997185;28;20264;-69
2022/12/07 12:20:45;;;;;;;1.58;1.48;;;17.70;61.60;;;;;;5013412;28;20184;-69
2022/12/07 12:23:20;;;;;;;1.77;1.67;;;17.70;61.40;;;;;;5014235;28;20184;-69
2022/12/07 12:26:22;;;;;;;2.35;1.60;;;17.70;61.40;;;;;;4996851;28;20218;-68
2022/12/07 12:29:23;;;;;;;1.50;1.40;;;17.70;61.40;;;;;;4978178;28;20195;-68
2022/12/07 12:32:12;;;;;;;1.52;1.42;;;17.70;61.40;;;;;;5029881;28;20219;-68
2022/12/07 12:34:46;;;;;;;1.48;1.38;;;17.70;61.40;;;;;;4996828;28;20668;-67
2022/12/07 12:37:34;;;;;;;1.70;1.60;;;17.70;61.40;;;;;;5008654;28;20187;-69
2022/12/07 12:40:14;;;;;;;1.90;1.70;;;17.70;61.30;;;;;;4993743;28;20203;-69
2022/12/07 12:42:56;;;;;;;1.70;1.60;;;17.70;61.40;;;;;;4977059;28;20192;-68
2022/12/07 12:45:30;;;;;;;1.70;1.50;;;17.70;61.30;;;;;;4993336;28;20208;-69
2022/12/07 12:48:04;;;;;;;1.98;1.80;;;17.80;61.40;;;;;;4994593;28;20173;-68
2022/12/07 12:50:37;;;;;;;1.40;1.30;;;17.70;61.40;;;;;;4993483;28;20330;-69
2022/12/07 12:53:24;;;;;;;1.60;1.50;;;17.70;61.40;;;;;;4993245;28;20192;-69
2022/12/07 12:56:30;;;;;;;1.48;1.38;;;17.70;61.20;;;;;;4993835;28;20274;-69
2022/12/07 12:59:21;;;;;;;1.35;1.25;;;17.70;61.30;;;;;;4990611;28;20200;-69
2022/12/07 13:01:49;;;;;;;1.48;1.38;;;17.70;61.10;;;;;;4976591;28;20202;-69
2022/12/07 13:04:29;;;;;;;2.38;1.63;;;17.70;61.00;;;;;;4995516;28;20188;-69
2022/12/07 13:06:55;;;;;;;1.60;1.42;;;17.70;61.10;;;;;;4992761;28;20209;-69
2022/12/07 13:09:27;;;;;;;1.60;1.50;;;17.70;61.10;;;;;;4976329;28;20251;-69
2022/12/07 13:12:02;;;;;;;1.45;1.35;;;17.70;61.00;;;;;;4992430;28;20243;-69
2022/12/07 13:14:39;;;;;;;1.60;1.50;;;17.70;61.00;;;;;;4976247;28;20247;-69
2022/12/07 13:17:30;;;;;;;1.45;1.35;;;17.70;61.00;;;;;;4992496;28;20645;-69
2022/12/07 13:19:58;;;;;;;1.40;1.30;;;17.70;61.10;;;;;;4993750;28;20263;-69
2022/12/07 13:22:38;;;;;;;1.50;1.40;;;17.70;61.10;;;;;;4989390;28;20263;-69
2022/12/07 13:25:31;;;;;;;1.95;1.85;;;17.70;61.00;;;;;;4995423;28;20222;-69